sensor_id;sensor_type;location;lat;lon;timestamp;P1;durP1;ratioP1;P2;durP2;ratioP2
10945;SDS011;5525;42.648;23.368;2024-03-02T00:01:15;27.33;;;17.33;;
10945;SDS011;5525;42.648;23.368;2024-03-02T00:03:42;27.52;;;16.35;;
10945;SDS011;5525;42.648;23.368;2024-03-02T00:06:09;27.30;;;16.40;;
10945;SDS011;5525;42.648;23.368;2024-03-02T00:08:37;25.25;;;15.35;;
10945;SDS011;5525;42.648;23.368;2024-03-02T00:11:04;21.75;;;15.00;;
10945;SDS011;5525;42.648;23.368;2024-03-02T00:13:31;28.73;;;16.92;;
10945;SDS011;5525;42.648;23.368;2024-03-02T00:15:58;26.58;;;16.17;;
10945;SDS011;5525;42.648;23.368;2024-03-02T00:18:27;27.45;;;17.15;;
10945;SDS011;5525;42.648;23.368;2024-03-02T00:20:57;25.50;;;15.23;;
10945;SDS011;5525;42.648;23.368;2024-03-02T00:23:27;25.30;;;15.50;;
10945;SDS011;5525;42.648;23.368;2024-03-02T00:25:56;25.50;;;15.50;;
10945;SDS011;5525;42.648;23.368;2024-03-02T00:28:23;24.88;;;14.65;;
10945;SDS011;5525;42.648;23.368;2024-03-02T00:30:55;26.83;;;15.93;;
10945;SDS011;5525;42.648;23.368;2024-03-02T00:33:30;23.48;;;14.32;;
10945;SDS011;5525;42.648;23.368;2024-03-02T00:35:58;25.92;;;16.10;;
10945;SDS011;5525;42.648;23.368;2024-03-02T00:38:26;25.48;;;15.35;;
10945;SDS011;5525;42.648;23.368;2024-03-02T00:40:53;23.90;;;14.68;;
10945;SDS011;5525;42.648;23.368;2024-03-02T00:43:38;25.00;;;15.65;;
10945;SDS011;5525;42.648;23.368;2024-03-02T00:46:08;25.75;;;15.55;;
10945;SDS011;5525;42.648;23.368;2024-03-02T00:48:38;23.73;;;15.23;;
10945;SDS011;5525;42.648;23.368;2024-03-02T00:51:05;26.42;;;14.75;;
10945;SDS011;5525;42.648;23.368;2024-03-02T00:53:32;25.23;;;14.90;;
10945;SDS011;5525;42.648;23.368;2024-03-02T00:55:59;22.73;;;14.13;;
10945;SDS011;5525;42.648;23.368;2024-03-02T00:58:28;23.30;;;14.30;;
10945;SDS011;5525;42.648;23.368;2024-03-02T01:00:54;21.65;;;12.75;;
10945;SDS011;5525;42.648;23.368;2024-03-02T01:03:21;22.42;;;12.57;;
10945;SDS011;5525;42.648;23.368;2024-03-02T01:05:50;23.45;;;13.60;;
10945;SDS011;5525;42.648;23.368;2024-03-02T01:08:17;21.60;;;13.88;;
10945;SDS011;5525;42.648;23.368;2024-03-02T01:10:44;19.60;;;12.63;;
10945;SDS011;5525;42.648;23.368;2024-03-02T01:13:11;23.45;;;13.90;;
10945;SDS011;5525;42.648;23.368;2024-03-02T01:15:38;23.17;;;13.63;;
10945;SDS011;5525;42.648;23.368;2024-03-02T01:18:05;20.02;;;13.13;;
10945;SDS011;5525;42.648;23.368;2024-03-02T01:20:31;22.30;;;13.15;;
10945;SDS011;5525;42.648;23.368;2024-03-02T01:23:00;25.30;;;14.15;;
10945;SDS011;5525;42.648;23.368;2024-03-02T01:25:26;23.75;;;13.70;;
10945;SDS011;5525;42.648;23.368;2024-03-02T01:27:53;21.92;;;13.45;;
10945;SDS011;5525;42.648;23.368;2024-03-02T01:30:20;23.52;;;14.15;;
10945;SDS011;5525;42.648;23.368;2024-03-02T01:32:47;23.10;;;13.98;;
10945;SDS011;5525;42.648;23.368;2024-03-02T01:35:14;22.48;;;14.15;;
10945;SDS011;5525;42.648;23.368;2024-03-02T01:37:41;21.27;;;13.52;;
10945;SDS011;5525;42.648;23.368;2024-03-02T01:40:10;21.98;;;13.95;;
10945;SDS011;5525;42.648;23.368;2024-03-02T01:42:37;24.38;;;14.57;;
10945;SDS011;5525;42.648;23.368;2024-03-02T01:45:05;21.67;;;13.90;;
10945;SDS011;5525;42.648;23.368;2024-03-02T01:47:33;25.45;;;14.25;;
10945;SDS011;5525;42.648;23.368;2024-03-02T01:50:00;23.92;;;14.57;;
10945;SDS011;5525;42.648;23.368;2024-03-02T01:52:27;21.00;;;13.35;;
10945;SDS011;5525;42.648;23.368;2024-03-02T01:54:54;26.20;;;14.75;;
10945;SDS011;5525;42.648;23.368;2024-03-02T01:57:22;24.95;;;14.27;;
10945;SDS011;5525;42.648;23.368;2024-03-02T01:59:49;24.92;;;15.25;;
10945;SDS011;5525;42.648;23.368;2024-03-02T02:02:16;24.23;;;14.95;;
10945;SDS011;5525;42.648;23.368;2024-03-02T02:04:44;23.15;;;13.60;;
10945;SDS011;5525;42.648;23.368;2024-03-02T02:07:11;22.13;;;14.00;;
10945;SDS011;5525;42.648;23.368;2024-03-02T02:09:39;25.38;;;15.55;;
10945;SDS011;5525;42.648;23.368;2024-03-02T02:12:07;25.20;;;14.63;;
10945;SDS011;5525;42.648;23.368;2024-03-02T02:14:36;23.23;;;14.85;;
10945;SDS011;5525;42.648;23.368;2024-03-02T02:17:05;26.05;;;15.52;;
10945;SDS011;5525;42.648;23.368;2024-03-02T02:19:35;25.75;;;15.32;;
10945;SDS011;5525;42.648;23.368;2024-03-02T02:22:04;26.95;;;16.80;;
10945;SDS011;5525;42.648;23.368;2024-03-02T02:24:31;25.33;;;16.50;;
10945;SDS011;5525;42.648;23.368;2024-03-02T02:26:58;28.40;;;16.88;;
10945;SDS011;5525;42.648;23.368;2024-03-02T02:29:25;28.02;;;16.38;;
10945;SDS011;5525;42.648;23.368;2024-03-02T02:31:52;27.15;;;16.58;;
10945;SDS011;5525;42.648;23.368;2024-03-02T02:34:19;27.30;;;16.35;;
10945;SDS011;5525;42.648;23.368;2024-03-02T02:36:46;27.27;;;15.90;;
10945;SDS011;5525;42.648;23.368;2024-03-02T02:39:15;29.88;;;17.40;;
10945;SDS011;5525;42.648;23.368;2024-03-02T02:41:45;30.20;;;18.63;;
10945;SDS011;5525;42.648;23.368;2024-03-02T02:44:12;29.67;;;18.30;;
10945;SDS011;5525;42.648;23.368;2024-03-02T02:46:39;27.23;;;15.98;;
10945;SDS011;5525;42.648;23.368;2024-03-02T02:49:07;29.95;;;17.30;;
10945;SDS011;5525;42.648;23.368;2024-03-02T02:51:33;30.80;;;17.80;;
10945;SDS011;5525;42.648;23.368;2024-03-02T02:54:00;31.58;;;17.50;;
10945;SDS011;5525;42.648;23.368;2024-03-02T02:56:28;28.88;;;17.55;;
10945;SDS011;5525;42.648;23.368;2024-03-02T02:58:55;31.88;;;17.83;;
10945;SDS011;5525;42.648;23.368;2024-03-02T03:01:22;30.23;;;18.85;;
10945;SDS011;5525;42.648;23.368;2024-03-02T03:03:48;28.75;;;17.50;;
10945;SDS011;5525;42.648;23.368;2024-03-02T03:06:15;31.80;;;18.50;;
10945;SDS011;5525;42.648;23.368;2024-03-02T03:08:42;28.70;;;17.75;;
10945;SDS011;5525;42.648;23.368;2024-03-02T03:11:09;28.90;;;17.52;;
10945;SDS011;5525;42.648;23.368;2024-03-02T03:13:37;28.27;;;16.95;;
10945;SDS011;5525;42.648;23.368;2024-03-02T03:16:04;27.70;;;17.20;;
10945;SDS011;5525;42.648;23.368;2024-03-02T03:18:31;31.15;;;17.67;;
10945;SDS011;5525;42.648;23.368;2024-03-02T03:20:58;30.30;;;17.42;;
10945;SDS011;5525;42.648;23.368;2024-03-02T03:23:24;30.33;;;17.08;;
10945;SDS011;5525;42.648;23.368;2024-03-02T03:25:51;24.20;;;15.50;;
10945;SDS011;5525;42.648;23.368;2024-03-02T03:28:18;25.67;;;15.95;;
10945;SDS011;5525;42.648;23.368;2024-03-02T03:30:46;28.63;;;15.85;;
10945;SDS011;5525;42.648;23.368;2024-03-02T03:33:12;24.20;;;15.40;;
10945;SDS011;5525;42.648;23.368;2024-03-02T03:35:39;24.02;;;14.63;;
10945;SDS011;5525;42.648;23.368;2024-03-02T03:38:06;28.17;;;16.42;;
10945;SDS011;5525;42.648;23.368;2024-03-02T03:40:33;25.35;;;15.98;;
10945;SDS011;5525;42.648;23.368;2024-03-02T03:43:00;21.88;;;14.68;;
10945;SDS011;5525;42.648;23.368;2024-03-02T03:45:27;24.40;;;15.10;;
10945;SDS011;5525;42.648;23.368;2024-03-02T03:47:56;24.90;;;16.15;;
10945;SDS011;5525;42.648;23.368;2024-03-02T03:50:23;25.58;;;14.70;;
10945;SDS011;5525;42.648;23.368;2024-03-02T03:52:50;24.98;;;15.95;;
10945;SDS011;5525;42.648;23.368;2024-03-02T03:55:17;22.52;;;14.85;;
10945;SDS011;5525;42.648;23.368;2024-03-02T03:57:44;27.58;;;16.05;;
10945;SDS011;5525;42.648;23.368;2024-03-02T04:00:11;26.58;;;16.20;;
10945;SDS011;5525;42.648;23.368;2024-03-02T04:02:38;28.40;;;16.20;;
10945;SDS011;5525;42.648;23.368;2024-03-02T04:05:07;23.98;;;15.32;;
10945;SDS011;5525;42.648;23.368;2024-03-02T04:07:36;25.33;;;14.88;;
10945;SDS011;5525;42.648;23.368;2024-03-02T04:10:08;22.58;;;14.23;;
10945;SDS011;5525;42.648;23.368;2024-03-02T04:12:37;25.58;;;15.77;;
10945;SDS011;5525;42.648;23.368;2024-03-02T04:15:04;28.13;;;16.85;;
10945;SDS011;5525;42.648;23.368;2024-03-02T04:17:32;27.75;;;17.48;;
10945;SDS011;5525;42.648;23.368;2024-03-02T04:20:00;24.27;;;15.57;;
10945;SDS011;5525;42.648;23.368;2024-03-02T04:22:32;26.38;;;16.83;;
10945;SDS011;5525;42.648;23.368;2024-03-02T04:24:59;25.90;;;16.80;;
10945;SDS011;5525;42.648;23.368;2024-03-02T04:27:26;25.88;;;15.75;;
10945;SDS011;5525;42.648;23.368;2024-03-02T04:29:53;26.17;;;16.13;;
10945;SDS011;5525;42.648;23.368;2024-03-02T04:32:20;29.40;;;17.00;;
10945;SDS011;5525;42.648;23.368;2024-03-02T04:34:47;28.08;;;16.73;;
10945;SDS011;5525;42.648;23.368;2024-03-02T04:37:13;27.90;;;15.60;;
10945;SDS011;5525;42.648;23.368;2024-03-02T04:39:42;24.35;;;14.98;;
10945;SDS011;5525;42.648;23.368;2024-03-02T04:42:08;23.25;;;14.90;;
10945;SDS011;5525;42.648;23.368;2024-03-02T04:44:35;24.58;;;15.43;;
10945;SDS011;5525;42.648;23.368;2024-03-02T04:47:03;29.15;;;16.48;;
10945;SDS011;5525;42.648;23.368;2024-03-02T04:49:30;27.02;;;16.27;;
10945;SDS011;5525;42.648;23.368;2024-03-02T04:51:57;28.92;;;17.25;;
10945;SDS011;5525;42.648;23.368;2024-03-02T04:54:23;28.50;;;16.20;;
10945;SDS011;5525;42.648;23.368;2024-03-02T04:56:52;28.20;;;17.40;;
10945;SDS011;5525;42.648;23.368;2024-03-02T04:59:19;25.52;;;15.88;;
10945;SDS011;5525;42.648;23.368;2024-03-02T05:01:46;28.02;;;16.63;;
10945;SDS011;5525;42.648;23.368;2024-03-02T05:04:13;32.45;;;17.70;;
10945;SDS011;5525;42.648;23.368;2024-03-02T05:06:40;28.58;;;16.60;;
10945;SDS011;5525;42.648;23.368;2024-03-02T05:09:07;29.67;;;17.13;;
10945;SDS011;5525;42.648;23.368;2024-03-02T05:11:34;31.90;;;18.88;;
10945;SDS011;5525;42.648;23.368;2024-03-02T05:14:16;28.33;;;17.17;;
10945;SDS011;5525;42.648;23.368;2024-03-02T05:16:43;30.15;;;17.02;;
10945;SDS011;5525;42.648;23.368;2024-03-02T05:19:10;28.40;;;17.52;;
10945;SDS011;5525;42.648;23.368;2024-03-02T05:21:36;29.75;;;17.50;;
10945;SDS011;5525;42.648;23.368;2024-03-02T05:24:03;30.02;;;18.45;;
10945;SDS011;5525;42.648;23.368;2024-03-02T05:26:31;25.98;;;16.58;;
10945;SDS011;5525;42.648;23.368;2024-03-02T05:28:57;26.98;;;17.27;;
10945;SDS011;5525;42.648;23.368;2024-03-02T05:31:25;29.05;;;17.08;;
10945;SDS011;5525;42.648;23.368;2024-03-02T05:33:52;27.30;;;17.13;;
10945;SDS011;5525;42.648;23.368;2024-03-02T05:36:19;27.98;;;17.40;;
10945;SDS011;5525;42.648;23.368;2024-03-02T05:38:46;29.63;;;17.27;;
10945;SDS011;5525;42.648;23.368;2024-03-02T05:41:13;28.52;;;16.92;;
10945;SDS011;5525;42.648;23.368;2024-03-02T05:43:41;28.58;;;17.63;;
10945;SDS011;5525;42.648;23.368;2024-03-02T05:46:07;28.80;;;17.70;;
10945;SDS011;5525;42.648;23.368;2024-03-02T05:48:36;28.27;;;17.15;;
10945;SDS011;5525;42.648;23.368;2024-03-02T05:51:03;24.95;;;15.10;;
10945;SDS011;5525;42.648;23.368;2024-03-02T05:53:30;26.63;;;15.95;;
10945;SDS011;5525;42.648;23.368;2024-03-02T05:55:56;23.92;;;15.13;;
10945;SDS011;5525;42.648;23.368;2024-03-02T05:58:23;26.65;;;15.38;;
10945;SDS011;5525;42.648;23.368;2024-03-02T06:01:08;24.02;;;14.50;;
10945;SDS011;5525;42.648;23.368;2024-03-02T06:03:36;26.10;;;15.88;;
10945;SDS011;5525;42.648;23.368;2024-03-02T06:06:03;26.33;;;15.57;;
10945;SDS011;5525;42.648;23.368;2024-03-02T06:08:30;24.85;;;15.25;;
10945;SDS011;5525;42.648;23.368;2024-03-02T06:10:57;27.83;;;15.95;;
10945;SDS011;5525;42.648;23.368;2024-03-02T06:13:24;28.55;;;16.88;;
10945;SDS011;5525;42.648;23.368;2024-03-02T06:15:51;31.58;;;17.00;;
10945;SDS011;5525;42.648;23.368;2024-03-02T06:18:18;27.55;;;16.95;;
10945;SDS011;5525;42.648;23.368;2024-03-02T06:20:46;31.00;;;17.90;;
10945;SDS011;5525;42.648;23.368;2024-03-02T06:23:14;28.60;;;16.92;;
10945;SDS011;5525;42.648;23.368;2024-03-02T06:25:41;32.00;;;18.35;;
10945;SDS011;5525;42.648;23.368;2024-03-02T06:28:07;32.88;;;17.92;;
10945;SDS011;5525;42.648;23.368;2024-03-02T06:30:34;30.92;;;16.75;;
10945;SDS011;5525;42.648;23.368;2024-03-02T06:33:01;29.30;;;17.67;;
10945;SDS011;5525;42.648;23.368;2024-03-02T06:35:29;31.90;;;17.67;;
10945;SDS011;5525;42.648;23.368;2024-03-02T06:37:57;29.33;;;17.38;;
10945;SDS011;5525;42.648;23.368;2024-03-02T06:40:23;31.20;;;17.55;;
10945;SDS011;5525;42.648;23.368;2024-03-02T06:42:50;31.27;;;17.33;;
10945;SDS011;5525;42.648;23.368;2024-03-02T06:45:17;29.25;;;17.00;;
10945;SDS011;5525;42.648;23.368;2024-03-02T06:47:44;29.13;;;16.55;;
10945;SDS011;5525;42.648;23.368;2024-03-02T06:50:11;30.13;;;16.33;;
10945;SDS011;5525;42.648;23.368;2024-03-02T06:52:37;29.38;;;16.95;;
10945;SDS011;5525;42.648;23.368;2024-03-02T06:55:06;30.80;;;16.60;;
10945;SDS011;5525;42.648;23.368;2024-03-02T06:57:33;30.80;;;17.08;;
10945;SDS011;5525;42.648;23.368;2024-03-02T07:00:00;29.48;;;17.15;;
10945;SDS011;5525;42.648;23.368;2024-03-02T07:02:30;27.98;;;16.65;;
10945;SDS011;5525;42.648;23.368;2024-03-02T07:04:57;32.33;;;16.98;;
10945;SDS011;5525;42.648;23.368;2024-03-02T07:07:24;28.15;;;15.85;;
10945;SDS011;5525;42.648;23.368;2024-03-02T07:09:51;28.98;;;16.88;;
10945;SDS011;5525;42.648;23.368;2024-03-02T07:12:19;27.95;;;16.15;;
10945;SDS011;5525;42.648;23.368;2024-03-02T07:14:45;26.95;;;16.55;;
10945;SDS011;5525;42.648;23.368;2024-03-02T07:17:31;28.83;;;15.95;;
10945;SDS011;5525;42.648;23.368;2024-03-02T07:19:58;30.52;;;16.38;;
10945;SDS011;5525;42.648;23.368;2024-03-02T07:22:25;30.80;;;16.55;;
10945;SDS011;5525;42.648;23.368;2024-03-02T07:24:52;27.40;;;16.48;;
10945;SDS011;5525;42.648;23.368;2024-03-02T07:27:20;27.90;;;16.27;;
10945;SDS011;5525;42.648;23.368;2024-03-02T07:29:47;28.20;;;16.92;;
10945;SDS011;5525;42.648;23.368;2024-03-02T07:32:13;30.40;;;17.27;;
10945;SDS011;5525;42.648;23.368;2024-03-02T07:34:40;28.70;;;17.00;;
10945;SDS011;5525;42.648;23.368;2024-03-02T07:37:07;33.85;;;17.35;;
10945;SDS011;5525;42.648;23.368;2024-03-02T07:39:34;24.52;;;15.18;;
10945;SDS011;5525;42.648;23.368;2024-03-02T07:42:01;27.15;;;16.33;;
10945;SDS011;5525;42.648;23.368;2024-03-02T07:44:29;27.35;;;16.00;;
10945;SDS011;5525;42.648;23.368;2024-03-02T07:46:56;28.38;;;16.98;;
10945;SDS011;5525;42.648;23.368;2024-03-02T07:49:23;28.55;;;17.08;;
10945;SDS011;5525;42.648;23.368;2024-03-02T07:51:50;31.98;;;16.63;;
10945;SDS011;5525;42.648;23.368;2024-03-02T07:54:16;29.83;;;17.30;;
10945;SDS011;5525;42.648;23.368;2024-03-02T07:56:44;32.08;;;16.67;;
10945;SDS011;5525;42.648;23.368;2024-03-02T07:59:12;29.42;;;17.17;;
10945;SDS011;5525;42.648;23.368;2024-03-02T08:01:40;29.40;;;15.82;;
10945;SDS011;5525;42.648;23.368;2024-03-02T08:04:07;28.08;;;16.88;;
10945;SDS011;5525;42.648;23.368;2024-03-02T08:06:33;27.70;;;16.63;;
10945;SDS011;5525;42.648;23.368;2024-03-02T08:09:00;32.97;;;17.60;;
10945;SDS011;5525;42.648;23.368;2024-03-02T08:11:30;29.05;;;17.55;;
10945;SDS011;5525;42.648;23.368;2024-03-02T08:13:57;32.35;;;18.05;;
10945;SDS011;5525;42.648;23.368;2024-03-02T08:16:24;29.35;;;17.38;;
10945;SDS011;5525;42.648;23.368;2024-03-02T08:18:52;29.08;;;16.13;;
10945;SDS011;5525;42.648;23.368;2024-03-02T08:21:22;27.63;;;16.33;;
10945;SDS011;5525;42.648;23.368;2024-03-02T08:23:49;25.60;;;16.30;;
10945;SDS011;5525;42.648;23.368;2024-03-02T08:26:15;22.15;;;14.18;;
10945;SDS011;5525;42.648;23.368;2024-03-02T08:28:43;29.50;;;16.40;;
10945;SDS011;5525;42.648;23.368;2024-03-02T08:31:10;27.85;;;16.40;;
10945;SDS011;5525;42.648;23.368;2024-03-02T08:33:37;27.27;;;16.67;;
10945;SDS011;5525;42.648;23.368;2024-03-02T08:36:07;26.95;;;15.93;;
10945;SDS011;5525;42.648;23.368;2024-03-02T08:38:35;30.00;;;16.27;;
10945;SDS011;5525;42.648;23.368;2024-03-02T08:41:02;26.60;;;15.48;;
10945;SDS011;5525;42.648;23.368;2024-03-02T08:43:29;23.52;;;15.68;;
10945;SDS011;5525;42.648;23.368;2024-03-02T08:45:56;26.52;;;15.98;;
10945;SDS011;5525;42.648;23.368;2024-03-02T08:48:22;26.48;;;15.20;;
10945;SDS011;5525;42.648;23.368;2024-03-02T08:50:49;26.08;;;16.17;;
10945;SDS011;5525;42.648;23.368;2024-03-02T08:53:17;24.13;;;15.65;;
10945;SDS011;5525;42.648;23.368;2024-03-02T08:55:44;26.33;;;14.80;;
10945;SDS011;5525;42.648;23.368;2024-03-02T08:58:11;21.95;;;14.40;;
10945;SDS011;5525;42.648;23.368;2024-03-02T09:00:39;23.17;;;14.68;;
10945;SDS011;5525;42.648;23.368;2024-03-02T09:03:06;23.42;;;14.27;;
10945;SDS011;5525;42.648;23.368;2024-03-02T09:05:34;24.05;;;14.25;;
10945;SDS011;5525;42.648;23.368;2024-03-02T09:08:00;23.58;;;14.35;;
10945;SDS011;5525;42.648;23.368;2024-03-02T09:10:30;23.52;;;13.65;;
10945;SDS011;5525;42.648;23.368;2024-03-02T09:12:56;22.23;;;13.95;;
10945;SDS011;5525;42.648;23.368;2024-03-02T09:15:24;20.73;;;13.65;;
10945;SDS011;5525;42.648;23.368;2024-03-02T09:17:52;19.83;;;13.00;;
10945;SDS011;5525;42.648;23.368;2024-03-02T09:20:18;19.77;;;12.88;;
10945;SDS011;5525;42.648;23.368;2024-03-02T09:22:45;20.95;;;13.23;;
10945;SDS011;5525;42.648;23.368;2024-03-02T09:25:13;20.52;;;12.60;;
10945;SDS011;5525;42.648;23.368;2024-03-02T09:27:42;17.13;;;11.27;;
10945;SDS011;5525;42.648;23.368;2024-03-02T09:30:09;20.98;;;11.73;;
10945;SDS011;5525;42.648;23.368;2024-03-02T09:32:37;19.38;;;12.18;;
10945;SDS011;5525;42.648;23.368;2024-03-02T09:35:04;16.23;;;11.50;;
10945;SDS011;5525;42.648;23.368;2024-03-02T09:37:31;17.35;;;11.65;;
10945;SDS011;5525;42.648;23.368;2024-03-02T09:39:58;22.85;;;12.48;;
10945;SDS011;5525;42.648;23.368;2024-03-02T09:42:25;20.13;;;12.45;;
10945;SDS011;5525;42.648;23.368;2024-03-02T09:44:54;20.45;;;13.38;;
10945;SDS011;5525;42.648;23.368;2024-03-02T09:47:21;20.67;;;13.45;;
10945;SDS011;5525;42.648;23.368;2024-03-02T09:49:48;19.00;;;12.30;;
10945;SDS011;5525;42.648;23.368;2024-03-02T09:52:15;23.35;;;13.38;;
10945;SDS011;5525;42.648;23.368;2024-03-02T09:54:42;21.55;;;13.07;;
10945;SDS011;5525;42.648;23.368;2024-03-02T09:57:09;22.08;;;13.63;;
10945;SDS011;5525;42.648;23.368;2024-03-02T09:59:36;22.65;;;14.10;;
10945;SDS011;5525;42.648;23.368;2024-03-02T10:02:04;20.30;;;12.73;;
10945;SDS011;5525;42.648;23.368;2024-03-02T10:04:32;21.75;;;14.57;;
10945;SDS011;5525;42.648;23.368;2024-03-02T10:07:13;26.85;;;16.23;;
10945;SDS011;5525;42.648;23.368;2024-03-02T10:09:41;24.92;;;14.88;;
10945;SDS011;5525;42.648;23.368;2024-03-02T10:12:10;29.45;;;16.92;;
10945;SDS011;5525;42.648;23.368;2024-03-02T10:14:37;29.80;;;17.90;;
10945;SDS011;5525;42.648;23.368;2024-03-02T10:17:06;23.92;;;15.48;;
10945;SDS011;5525;42.648;23.368;2024-03-02T10:19:34;25.38;;;15.70;;
10945;SDS011;5525;42.648;23.368;2024-03-02T10:22:02;26.58;;;16.40;;
10945;SDS011;5525;42.648;23.368;2024-03-02T10:24:40;25.90;;;16.77;;
10945;SDS011;5525;42.648;23.368;2024-03-02T10:27:09;26.63;;;17.02;;
10945;SDS011;5525;42.648;23.368;2024-03-02T10:29:41;27.88;;;16.85;;
10945;SDS011;5525;42.648;23.368;2024-03-02T10:32:10;26.15;;;15.30;;
10945;SDS011;5525;42.648;23.368;2024-03-02T10:34:37;26.70;;;15.52;;
10945;SDS011;5525;42.648;23.368;2024-03-02T10:37:06;25.33;;;15.65;;
10945;SDS011;5525;42.648;23.368;2024-03-02T10:39:34;25.88;;;16.00;;
10945;SDS011;5525;42.648;23.368;2024-03-02T10:42:02;25.45;;;15.10;;
10945;SDS011;5525;42.648;23.368;2024-03-02T10:44:29;26.00;;;16.27;;
10945;SDS011;5525;42.648;23.368;2024-03-02T10:46:57;24.10;;;14.98;;
10945;SDS011;5525;42.648;23.368;2024-03-02T10:49:29;21.73;;;14.82;;
10945;SDS011;5525;42.648;23.368;2024-03-02T10:51:57;22.35;;;13.30;;
10945;SDS011;5525;42.648;23.368;2024-03-02T10:54:24;22.08;;;13.63;;
10945;SDS011;5525;42.648;23.368;2024-03-02T10:56:54;19.00;;;12.48;;
10945;SDS011;5525;42.648;23.368;2024-03-02T10:59:26;19.73;;;12.88;;
10945;SDS011;5525;42.648;23.368;2024-03-02T11:01:55;20.20;;;12.50;;
10945;SDS011;5525;42.648;23.368;2024-03-02T11:04:24;21.75;;;13.10;;
10945;SDS011;5525;42.648;23.368;2024-03-02T11:06:54;20.25;;;12.82;;
10945;SDS011;5525;42.648;23.368;2024-03-02T11:09:28;19.50;;;12.05;;
10945;SDS011;5525;42.648;23.368;2024-03-02T11:12:00;19.55;;;12.63;;
10945;SDS011;5525;42.648;23.368;2024-03-02T11:14:30;23.02;;;13.32;;
10945;SDS011;5525;42.648;23.368;2024-03-02T11:16:59;20.33;;;12.15;;
10945;SDS011;5525;42.648;23.368;2024-03-02T11:19:30;19.10;;;12.18;;
10945;SDS011;5525;42.648;23.368;2024-03-02T11:21:59;21.58;;;13.57;;
10945;SDS011;5525;42.648;23.368;2024-03-02T11:24:28;19.52;;;11.90;;
10945;SDS011;5525;42.648;23.368;2024-03-02T11:26:59;19.63;;;12.60;;
10945;SDS011;5525;42.648;23.368;2024-03-02T11:32:13;19.33;;;11.90;;
10945;SDS011;5525;42.648;23.368;2024-03-02T11:34:42;19.85;;;12.68;;
10945;SDS011;5525;42.648;23.368;2024-03-02T11:37:11;19.83;;;12.82;;
10945;SDS011;5525;42.648;23.368;2024-03-02T11:39:39;19.90;;;12.95;;
10945;SDS011;5525;42.648;23.368;2024-03-02T11:42:06;22.48;;;12.85;;
10945;SDS011;5525;42.648;23.368;2024-03-02T11:44:34;19.58;;;12.73;;
10945;SDS011;5525;42.648;23.368;2024-03-02T11:47:02;18.70;;;11.57;;
10945;SDS011;5525;42.648;23.368;2024-03-02T11:49:41;17.17;;;11.70;;
10945;SDS011;5525;42.648;23.368;2024-03-02T11:52:09;18.80;;;12.18;;
10945;SDS011;5525;42.648;23.368;2024-03-02T11:54:39;17.92;;;12.32;;
10945;SDS011;5525;42.648;23.368;2024-03-02T11:57:11;18.08;;;11.30;;
10945;SDS011;5525;42.648;23.368;2024-03-02T11:59:39;17.92;;;11.98;;
10945;SDS011;5525;42.648;23.368;2024-03-02T12:02:05;17.70;;;11.02;;
10945;SDS011;5525;42.648;23.368;2024-03-02T12:04:33;17.95;;;11.98;;
10945;SDS011;5525;42.648;23.368;2024-03-02T12:07:00;16.02;;;11.40;;
10945;SDS011;5525;42.648;23.368;2024-03-02T12:09:29;18.75;;;11.98;;
10945;SDS011;5525;42.648;23.368;2024-03-02T12:12:03;16.48;;;11.13;;
10945;SDS011;5525;42.648;23.368;2024-03-02T12:14:31;16.95;;;10.55;;
10945;SDS011;5525;42.648;23.368;2024-03-02T12:16:58;18.40;;;11.52;;
10945;SDS011;5525;42.648;23.368;2024-03-02T12:19:25;16.13;;;11.32;;
10945;SDS011;5525;42.648;23.368;2024-03-02T12:21:52;17.45;;;11.27;;
10945;SDS011;5525;42.648;23.368;2024-03-02T12:24:20;16.67;;;11.25;;
10945;SDS011;5525;42.648;23.368;2024-03-02T12:26:49;14.73;;;9.70;;
10945;SDS011;5525;42.648;23.368;2024-03-02T12:29:17;14.27;;;9.55;;
10945;SDS011;5525;42.648;23.368;2024-03-02T12:31:45;13.73;;;9.57;;
10945;SDS011;5525;42.648;23.368;2024-03-02T12:34:14;14.40;;;10.15;;
10945;SDS011;5525;42.648;23.368;2024-03-02T12:36:42;13.50;;;9.70;;
10945;SDS011;5525;42.648;23.368;2024-03-02T12:39:12;15.10;;;9.27;;
10945;SDS011;5525;42.648;23.368;2024-03-02T12:41:40;14.60;;;10.02;;
10945;SDS011;5525;42.648;23.368;2024-03-02T12:44:09;15.00;;;10.88;;
10945;SDS011;5525;42.648;23.368;2024-03-02T12:46:36;14.18;;;10.10;;
10945;SDS011;5525;42.648;23.368;2024-03-02T12:49:07;15.98;;;10.50;;
10945;SDS011;5525;42.648;23.368;2024-03-02T12:51:35;15.80;;;10.85;;
10945;SDS011;5525;42.648;23.368;2024-03-02T12:54:03;15.80;;;10.82;;
10945;SDS011;5525;42.648;23.368;2024-03-02T12:56:30;14.27;;;10.52;;
10945;SDS011;5525;42.648;23.368;2024-03-02T12:58:57;16.85;;;11.38;;
10945;SDS011;5525;42.648;23.368;2024-03-02T13:01:26;16.20;;;10.77;;
10945;SDS011;5525;42.648;23.368;2024-03-02T13:03:53;16.50;;;11.20;;
10945;SDS011;5525;42.648;23.368;2024-03-02T13:06:21;16.80;;;11.50;;
10945;SDS011;5525;42.648;23.368;2024-03-02T13:08:48;15.45;;;11.55;;
10945;SDS011;5525;42.648;23.368;2024-03-02T13:11:16;15.85;;;11.68;;
10945;SDS011;5525;42.648;23.368;2024-03-02T13:13:43;15.40;;;11.30;;
10945;SDS011;5525;42.648;23.368;2024-03-02T13:16:10;17.02;;;11.20;;
10945;SDS011;5525;42.648;23.368;2024-03-02T13:18:39;15.65;;;10.68;;
10945;SDS011;5525;42.648;23.368;2024-03-02T13:21:06;17.08;;;11.60;;
10945;SDS011;5525;42.648;23.368;2024-03-02T13:23:33;15.40;;;10.90;;
10945;SDS011;5525;42.648;23.368;2024-03-02T13:26:00;14.73;;;11.27;;
10945;SDS011;5525;42.648;23.368;2024-03-02T13:28:27;15.82;;;11.48;;
10945;SDS011;5525;42.648;23.368;2024-03-02T13:30:54;18.40;;;12.57;;
10945;SDS011;5525;42.648;23.368;2024-03-02T13:33:21;18.23;;;11.80;;
10945;SDS011;5525;42.648;23.368;2024-03-02T13:35:50;15.93;;;11.25;;
10945;SDS011;5525;42.648;23.368;2024-03-02T13:38:16;16.55;;;11.80;;
10945;SDS011;5525;42.648;23.368;2024-03-02T13:40:44;18.52;;;12.50;;
10945;SDS011;5525;42.648;23.368;2024-03-02T13:43:11;17.50;;;12.30;;
10945;SDS011;5525;42.648;23.368;2024-03-02T13:45:38;17.63;;;12.13;;
10945;SDS011;5525;42.648;23.368;2024-03-02T13:48:05;16.10;;;11.43;;
10945;SDS011;5525;42.648;23.368;2024-03-02T13:50:33;16.83;;;11.50;;
10945;SDS011;5525;42.648;23.368;2024-03-02T13:53:01;17.40;;;11.77;;
10945;SDS011;5525;42.648;23.368;2024-03-02T13:55:29;16.00;;;11.35;;
10945;SDS011;5525;42.648;23.368;2024-03-02T13:57:56;16.75;;;11.38;;
10945;SDS011;5525;42.648;23.368;2024-03-02T14:00:23;16.08;;;11.68;;
10945;SDS011;5525;42.648;23.368;2024-03-02T14:02:51;17.48;;;12.02;;
10945;SDS011;5525;42.648;23.368;2024-03-02T14:05:18;18.55;;;12.50;;
10945;SDS011;5525;42.648;23.368;2024-03-02T14:07:45;20.73;;;14.38;;
10945;SDS011;5525;42.648;23.368;2024-03-02T14:10:13;19.88;;;14.05;;
10945;SDS011;5525;42.648;23.368;2024-03-02T14:12:40;17.92;;;12.85;;
10945;SDS011;5525;42.648;23.368;2024-03-02T14:15:07;18.08;;;12.77;;
10945;SDS011;5525;42.648;23.368;2024-03-02T14:17:35;20.33;;;13.48;;
10945;SDS011;5525;42.648;23.368;2024-03-02T14:20:01;18.50;;;12.68;;
10945;SDS011;5525;42.648;23.368;2024-03-02T14:22:30;18.75;;;12.77;;
10945;SDS011;5525;42.648;23.368;2024-03-02T14:24:57;20.50;;;12.93;;
10945;SDS011;5525;42.648;23.368;2024-03-02T14:27:25;20.58;;;14.70;;